Time;durP1;ratioP1;P1;durP2;ratioP2;P2;SDS_P1;SDS_P2;PMS_P1;PMS_P2;Temp;Humidity;BMP_temperature;BMP_pressure;BME280_temperature;BME280_humidity;BME280_pressure;Samples;Min_cycle;Max_cycle;Signal;HPM_P1;HPM_P2
2021/05/07 00:01:09;;;;;;;26.67;19.55;;;6.50;93.90;;;;;;5072535;28;20411;-75
2021/05/07 00:03:36;;;;;;;27.55;19.90;;;6.50;93.00;;;;;;5059145;28;20401;-75
2021/05/07 00:06:04;;;;;;;27.42;20.23;;;6.50;93.50;;;;;;5056256;28;20384;-75
2021/05/07 00:08:38;;;;;;;26.13;20.08;;;6.50;94.20;;;;;;5052810;28;20385;-75
2021/05/07 00:11:06;;;;;;;29.67;21.70;;;6.50;93.90;;;;;;5052946;28;20395;-74
2021/05/07 00:13:33;;;;;;;31.42;21.52;;;6.50;96.50;;;;;;5053093;28;20478;-74
2021/05/07 00:15:59;;;;;;;27.67;20.37;;;6.50;93.40;;;;;;5053503;28;20912;-74
2021/05/07 00:18:25;;;;;;;28.17;20.13;;;6.60;94.80;;;;;;5072847;28;20405;-74
2021/05/07 00:20:51;;;;;;;27.65;19.40;;;6.60;94.30;;;;;;5076702;28;20388;-75
2021/05/07 00:23:16;;;;;;;27.20;18.90;;;6.60;86.30;;;;;;5062037;28;20465;-75
2021/05/07 00:25:44;;;;;;;26.70;20.10;;;6.70;83.90;;;;;;5040166;28;20386;-75
2021/05/07 00:28:11;;;;;;;26.75;19.70;;;6.60;84.30;;;;;;5066106;28;20799;-74
2021/05/07 00:30:38;;;;;;;26.50;19.33;;;6.50;86.10;;;;;;5062061;28;20743;-75
2021/05/07 00:33:04;;;;;;;27.48;20.25;;;6.50;86.50;;;;;;5063656;28;20408;-75
2021/05/07 00:35:30;;;;;;;28.88;20.20;;;6.50;81.70;;;;;;5071593;28;20380;-75
2021/05/07 00:37:56;;;;;;;28.85;20.55;;;6.40;85.00;;;;;;5058689;28;20454;-76
2021/05/07 00:40:21;;;;;;;24.20;17.83;;;6.40;83.20;;;;;;5051556;28;20404;-75
2021/05/07 00:42:47;;;;;;;25.70;19.10;;;6.60;78.10;;;;;;5052639;28;20404;-75
2021/05/07 00:45:14;;;;;;;25.23;18.20;;;6.60;80.30;;;;;;5056032;28;20430;-75
2021/05/07 00:47:50;;;;;;;22.52;17.17;;;6.70;76.70;;;;;;5071526;28;20383;-75
2021/05/07 00:50:17;;;;;;;21.60;16.23;;;6.70;76.00;;;;;;5065213;28;20404;-75
2021/05/07 00:52:43;;;;;;;22.48;17.80;;;6.80;72.20;;;;;;5051302;28;20405;-75
2021/05/07 00:55:09;;;;;;;22.83;17.42;;;6.70;75.70;;;;;;5054535;28;20869;-75
2021/05/07 00:57:37;;;;;;;23.23;17.88;;;6.80;75.70;;;;;;5071386;28;20847;-75
2021/05/07 01:00:05;;;;;;;23.55;18.17;;;6.70;79.70;;;;;;5069594;28;20393;-75
2021/05/07 01:02:30;;;;;;;25.77;19.00;;;6.70;77.80;;;;;;5071028;28;20387;-75
2021/05/07 01:04:56;;;;;;;24.30;18.25;;;6.70;78.00;;;;;;5064395;28;20389;-75
2021/05/07 01:07:21;;;;;;;24.65;18.15;;;6.70;78.00;;;;;;5071066;28;20486;-75
2021/05/07 01:09:50;;;;;;;23.90;18.50;;;6.70;76.80;;;;;;5056164;28;20472;-75
2021/05/07 01:12:17;;;;;;;24.55;19.10;;;6.60;79.80;;;;;;5053625;28;20441;-74
2021/05/07 01:14:44;;;;;;;23.23;17.60;;;6.70;79.00;;;;;;5051060;28;20394;-74
2021/05/07 01:17:09;;;;;;;21.00;17.08;;;6.60;78.50;;;;;;5051311;28;20909;-75
2021/05/07 01:19:35;;;;;;;24.58;18.20;;;6.60;78.40;;;;;;5049527;28;20397;-74
2021/05/07 01:22:00;;;;;;;24.75;17.90;;;6.60;78.40;;;;;;5042176;28;20721;-75
2021/05/07 01:24:26;;;;;;;20.35;16.35;;;6.50;79.10;;;;;;5050693;28;20389;-78
2021/05/07 01:26:53;;;;;;;24.05;17.60;;;6.50;79.70;;;;;;5052722;28;20385;-77
2021/05/07 01:29:19;;;;;;;23.60;17.73;;;6.50;80.50;;;;;;5052787;28;20397;-77
2021/05/07 01:31:46;;;;;;;24.13;17.80;;;6.40;81.20;;;;;;5050255;28;20930;-77
2021/05/07 01:34:12;;;;;;;21.83;17.23;;;6.40;82.40;;;;;;5050474;28;20539;-78
2021/05/07 01:36:38;;;;;;;26.50;18.60;;;6.40;82.20;;;;;;5052763;28;20464;-77
2021/05/07 01:39:04;;;;;;;24.90;18.70;;;6.50;81.30;;;;;;5051143;28;20389;-78
2021/05/07 01:41:29;;;;;;;25.95;18.40;;;6.50;81.20;;;;;;5056013;28;20397;-78
2021/05/07 01:43:56;;;;;;;28.30;19.20;;;6.60;80.00;;;;;;5056297;28;20393;-78
2021/05/07 01:46:22;;;;;;;29.38;19.90;;;6.50;80.10;;;;;;5055041;28;20393;-77
2021/05/07 01:48:48;;;;;;;29.27;21.17;;;6.50;80.30;;;;;;5052406;28;20416;-77
2021/05/07 01:51:15;;;;;;;29.53;21.07;;;6.40;80.90;;;;;;5053937;28;20389;-77
2021/05/07 01:53:41;;;;;;;28.17;20.45;;;6.40;80.80;;;;;;5052080;28;20405;-77
2021/05/07 01:56:06;;;;;;;31.77;21.47;;;6.30;81.80;;;;;;5049979;28;20400;-77
2021/05/07 01:58:32;;;;;;;33.97;22.27;;;6.20;84.80;;;;;;5052431;28;20396;-78
2021/05/07 02:00:58;;;;;;;33.27;22.93;;;6.20;85.50;;;;;;5051544;28;20468;-76
2021/05/07 02:03:23;;;;;;;35.40;23.27;;;6.10;87.50;;;;;;5067513;28;20958;-77
2021/05/07 02:05:49;;;;;;;30.23;22.20;;;6.20;86.00;;;;;;5068262;28;20874;-78
2021/05/07 02:08:15;;;;;;;34.97;23.00;;;6.00;87.50;;;;;;5051696;28;20404;-77
2021/05/07 02:10:41;;;;;;;32.40;23.10;;;5.90;89.00;;;;;;5050702;28;20378;-77
2021/05/07 02:13:09;;;;;;;34.15;23.35;;;5.90;88.90;;;;;;5049914;28;20829;-77
2021/05/07 02:15:35;;;;;;;35.58;23.70;;;5.90;90.20;;;;;;5051827;28;20393;-77
2021/05/07 02:18:01;;;;;;;36.13;24.00;;;5.90;90.70;;;;;;5053987;28;20477;-76
2021/05/07 02:20:29;;;;;;;34.15;22.73;;;5.90;90.80;;;;;;5054147;28;20384;-76
2021/05/07 02:22:56;;;;;;;37.88;24.17;;;5.80;90.60;;;;;;5053061;28;20385;-78
2021/05/07 02:25:23;;;;;;;35.93;24.50;;;5.70;92.70;;;;;;5053126;28;20392;-76
2021/05/07 02:27:51;;;;;;;37.35;24.98;;;5.60;93.80;;;;;;5054222;28;20400;-77
2021/05/07 02:30:20;;;;;;;40.53;25.90;;;5.50;95.30;;;;;;5054605;28;20723;-76
2021/05/07 02:32:45;;;;;;;38.25;25.90;;;5.50;95.70;;;;;;5054426;28;20396;-77
2021/05/07 02:35:12;;;;;;;38.40;26.00;;;5.50;96.50;;;;;;5052809;28;20379;-77
2021/05/07 02:37:38;;;;;;;39.33;26.48;;;5.50;95.50;;;;;;5054375;28;20385;-77
2021/05/07 02:40:05;;;;;;;40.28;26.08;;;5.50;96.60;;;;;;5054439;28;20890;-77
2021/05/07 02:42:31;;;;;;;42.90;27.40;;;5.40;97.10;;;;;;5054129;28;20397;-76
2021/05/07 02:44:56;;;;;;;42.53;27.85;;;5.40;97.70;;;;;;5053823;28;20866;-77
2021/05/07 02:47:22;;;;;;;46.15;27.73;;;5.30;99.20;;;;;;5055950;28;20393;-76
2021/05/07 02:49:48;;;;;;;41.53;28.03;;;5.30;99.90;;;;;;5075986;28;20389;-76
2021/05/07 02:52:14;;;;;;;44.20;27.85;;;5.30;99.90;;;;;;5072014;28;20392;-77
2021/05/07 02:54:40;;;;;;;39.83;26.97;;;5.30;99.70;;;;;;5059177;28;20394;-76
2021/05/07 02:57:06;;;;;;;42.45;27.95;;;5.30;99.10;;;;;;5057322;28;20404;-76
2021/05/07 02:59:32;;;;;;;43.30;27.63;;;5.30;99.90;;;;;;5056865;28;20480;-77
2021/05/07 03:01:57;;;;;;;41.65;27.20;;;5.30;99.50;;;;;;5059079;28;20753;-77
2021/05/07 03:04:23;;;;;;;44.55;28.15;;;5.40;99.80;;;;;;5062181;28;20444;-77
2021/05/07 03:06:50;;;;;;;44.63;28.77;;;5.40;99.90;;;;;;5065880;28;20488;-75
2021/05/07 03:09:16;;;;;;;43.45;28.88;;;5.50;99.50;;;;;;5058603;28;20397;-76
2021/05/07 03:11:42;;;;;;;47.40;28.45;;;5.60;99.60;;;;;;5053331;28;20753;-77
2021/05/07 03:14:08;;;;;;;43.20;27.80;;;5.70;99.10;;;;;;5051699;28;20488;-76
2021/05/07 03:16:34;;;;;;;42.93;27.40;;;5.80;95.20;;;;;;5053349;28;20425;-77
2021/05/07 03:19:00;;;;;;;43.13;26.70;;;5.90;94.50;;;;;;5052145;28;20381;-77
2021/05/07 03:21:26;;;;;;;42.90;27.70;;;5.90;92.70;;;;;;5053449;28;20470;-77
2021/05/07 03:23:51;;;;;;;40.15;27.55;;;5.80;93.60;;;;;;5052867;28;20420;-77
2021/05/07 03:26:18;;;;;;;43.15;28.02;;;5.70;94.40;;;;;;5052592;28;20390;-76
2021/05/07 03:28:43;;;;;;;42.97;28.57;;;5.80;93.10;;;;;;5051935;28;20922;-77
2021/05/07 03:31:09;;;;;;;43.88;27.55;;;5.70;94.30;;;;;;5052908;28;20393;-77
2021/05/07 03:33:37;;;;;;;40.33;26.30;;;5.70;94.50;;;;;;5052573;28;20948;-77
2021/05/07 03:36:03;;;;;;;43.30;26.73;;;5.80;92.10;;;;;;5052659;28;20387;-77
2021/05/07 03:38:30;;;;;;;40.60;27.70;;;5.70;92.10;;;;;;5052907;28;20397;-77
2021/05/07 03:40:55;;;;;;;44.70;29.05;;;5.60;93.70;;;;;;5052796;28;20472;-77
2021/05/07 03:43:21;;;;;;;47.73;29.67;;;5.50;95.70;;;;;;5052918;28;20475;-77
2021/05/07 03:45:47;;;;;;;47.75;30.73;;;5.40;97.50;;;;;;5066417;22;20434;-69
2021/05/07 03:48:18;;;;;;;47.03;29.47;;;5.30;97.70;;;;;;5052560;28;20381;-69
2021/05/07 03:50:44;;;;;;;48.80;29.77;;;5.30;97.60;;;;;;5052502;28;20377;-69
2021/05/07 03:53:11;;;;;;;43.80;27.90;;;5.30;97.90;;;;;;5051869;28;20405;-69
2021/05/07 03:55:37;;;;;;;42.22;29.02;;;5.30;97.60;;;;;;5052021;28;20404;-70
2021/05/07 03:58:02;;;;;;;52.95;32.10;;;5.10;98.60;;;;;;5052423;28;20734;-70
2021/05/07 04:00:28;;;;;;;51.10;31.23;;;5.00;99.90;;;;;;5052208;28;20374;-71
2021/05/07 04:02:54;;;;;;;48.60;31.00;;;5.00;99.90;;;;;;5051761;28;20408;-72
2021/05/07 04:05:19;;;;;;;52.40;31.30;;;5.00;99.90;;;;;;5052205;28;20431;-71
2021/05/07 04:07:49;;;;;;;47.35;30.75;;;5.10;99.90;;;;;;5052510;28;20381;-70
2021/05/07 04:10:20;;;;;;;49.13;30.30;;;5.00;99.90;;;;;;5053953;28;20390;-70
2021/05/07 04:15:15;;;;;;;48.35;30.15;;;5.20;99.90;;;;;;5054867;28;20392;-70
2021/05/07 04:17:41;;;;;;;46.55;30.00;;;5.20;98.80;;;;;;5054496;28;20387;-70
2021/05/07 04:20:08;;;;;;;46.33;31.23;;;5.30;97.80;;;;;;5054426;28;20385;-70
2021/05/07 04:22:33;;;;;;;51.38;32.00;;;5.20;98.60;;;;;;5053835;28;20378;-71
2021/05/07 04:24:59;;;;;;;49.97;30.97;;;5.30;97.60;;;;;;5052585;28;20385;-71
2021/05/07 04:27:24;;;;;;;49.77;32.43;;;5.30;97.90;;;;;;5054688;28;20421;-70
2021/05/07 04:29:51;;;;;;;51.25;32.30;;;5.30;98.10;;;;;;5054466;28;20431;-70
2021/05/07 04:32:17;;;;;;;54.38;33.22;;;5.40;98.60;;;;;;5053105;28;20381;-70
2021/05/07 04:34:42;;;;;;;56.73;34.57;;;5.40;98.30;;;;;;5051036;28;20933;-69
2021/05/07 04:37:08;;;;;;;56.23;35.30;;;5.50;98.20;;;;;;5050953;28;20397;-70
2021/05/07 04:39:33;;;;;;;54.93;37.27;;;5.40;99.60;;;;;;5050775;28;20385;-70
2021/05/07 04:41:59;;;;;;;56.83;36.20;;;5.60;99.20;;;;;;5051320;28;20457;-70
2021/05/07 04:44:25;;;;;;;63.70;37.25;;;5.80;97.60;;;;;;5050628;28;20401;-70
2021/05/07 04:46:52;;;;;;;55.60;35.45;;;6.00;98.10;;;;;;5050691;28;20728;-70
2021/05/07 04:49:18;;;;;;;57.30;37.20;;;6.10;93.90;;;;;;5051028;28;20405;-70
2021/05/07 04:51:43;;;;;;;54.67;36.15;;;6.30;90.50;;;;;;5051351;28;20389;-71
2021/05/07 04:54:09;;;;;;;51.88;34.35;;;6.40;89.80;;;;;;5050594;28;20452;-70
2021/05/07 04:56:35;;;;;;;54.38;35.63;;;6.40;91.80;;;;;;5051566;28;20827;-72
2021/05/07 04:59:00;;;;;;;51.88;35.17;;;6.60;90.60;;;;;;5050815;28;20463;-71
2021/05/07 05:01:26;;;;;;;55.50;36.50;;;6.60;89.80;;;;;;5051126;28;20388;-71
2021/05/07 05:03:51;;;;;;;59.40;37.88;;;6.70;87.70;;;;;;5050195;28;20397;-71
2021/05/07 05:06:17;;;;;;;56.58;36.10;;;6.90;85.40;;;;;;5050830;28;20393;-71
2021/05/07 05:08:42;;;;;;;55.57;33.87;;;7.10;81.10;;;;;;5050969;28;20398;-71
2021/05/07 05:11:08;;;;;;;47.28;32.20;;;7.40;76.00;;;;;;5045123;28;20395;-70
2021/05/07 05:13:33;;;;;;;47.30;32.43;;;7.60;69.90;;;;;;5055949;28;20409;-71
2021/05/07 05:16:00;;;;;;;48.70;33.93;;;7.70;68.70;;;;;;5053411;28;20777;-71
2021/05/07 05:18:31;;;;;;;54.25;35.63;;;7.70;68.90;;;;;;5051475;28;20389;-71
2021/05/07 05:21:01;;;;;;;53.73;34.87;;;7.70;70.50;;;;;;5050332;28;20461;-71
2021/05/07 05:23:28;;;;;;;55.10;36.65;;;7.70;70.50;;;;;;5050351;28;20375;-71
2021/05/07 05:25:53;;;;;;;51.83;34.50;;;7.60;68.50;;;;;;5050428;28;20381;-71
2021/05/07 05:28:19;;;;;;;56.07;35.33;;;7.50;70.70;;;;;;5050917;28;20408;-69
2021/05/07 05:30:45;;;;;;;55.53;36.72;;;7.40;71.50;;;;;;5050230;28;20393;-70
2021/05/07 05:33:11;;;;;;;59.78;36.58;;;7.40;72.40;;;;;;5049484;28;20770;-70
2021/05/07 05:35:37;;;;;;;57.73;37.13;;;7.40;73.80;;;;;;5050119;28;20420;-70
2021/05/07 05:38:04;;;;;;;59.33;37.85;;;7.30;75.50;;;;;;5049905;28;20413;-71
2021/05/07 05:40:30;;;;;;;60.90;38.70;;;7.40;71.90;;;;;;5050315;28;20387;-70
2021/05/07 05:42:56;;;;;;;64.43;40.97;;;7.20;75.40;;;;;;5050427;28;20439;-71
2021/05/07 05:45:25;;;;;;;60.67;39.88;;;7.20;78.70;;;;;;5050149;28;20464;-71
2021/05/07 05:48:02;;;;;;;62.05;40.40;;;7.20;74.50;;;;;;5050238;28;20875;-70
2021/05/07 05:50:27;;;;;;;61.17;38.63;;;7.40;74.70;;;;;;5053488;28;20395;-70
2021/05/07 05:52:53;;;;;;;32.90;22.10;;;7.60;67.50;;;;;;5054989;28;20727;-70
2021/05/07 05:55:20;;;;;;;54.60;32.90;;;7.20;60.70;;;;;;5055979;28;20373;-70
2021/05/07 05:57:45;;;;;;;42.08;26.90;;;6.80;74.90;;;;;;5052850;28;20412;-71
2021/05/07 06:00:12;;;;;;;47.33;26.75;;;6.50;77.60;;;;;;5054970;28;20432;-70
2021/05/07 06:02:37;;;;;;;42.10;26.08;;;6.20;99.90;;;;;;5055323;28;20807;-70
2021/05/07 06:05:05;;;;;;;38.60;24.38;;;5.90;99.90;;;;;;5054381;28;20401;-70
2021/05/07 06:07:31;;;;;;;26.42;18.00;;;5.80;99.90;;;;;;5055476;28;20853;-70
2021/05/07 06:09:56;;;;;;;26.00;16.43;;;5.70;99.90;;;;;;5053620;28;20385;-70
2021/05/07 06:12:22;;;;;;;25.00;17.37;;;5.70;94.00;;;;;;5045016;28;20390;-71
2021/05/07 06:14:47;;;;;;;24.90;16.42;;;5.70;95.20;;;;;;5034000;28;20759;-72
2021/05/07 06:17:13;;;;;;;28.30;18.05;;;5.80;96.40;;;;;;5033950;28;21006;-72
2021/05/07 06:19:38;;;;;;;23.23;16.20;;;5.90;96.60;;;;;;5042037;28;20429;-70
2021/05/07 06:22:04;;;;;;;20.73;15.13;;;6.00;93.10;;;;;;5052957;28;20385;-72
2021/05/07 06:24:30;;;;;;;25.75;17.42;;;6.00;85.70;;;;;;5055113;28;20443;-71
2021/05/07 06:26:55;;;;;;;26.83;18.30;;;6.10;85.30;;;;;;5055481;28;20385;-71
2021/05/07 06:29:21;;;;;;;35.00;21.20;;;6.10;89.70;;;;;;5054020;28;20468;-71
2021/05/07 06:31:47;;;;;;;28.30;19.30;;;6.20;92.70;;;;;;5055766;28;21009;-70
2021/05/07 06:34:12;;;;;;;25.80;18.90;;;6.40;89.10;;;;;;5054778;28;20762;-71
2021/05/07 06:36:38;;;;;;;27.30;19.13;;;6.60;82.00;;;;;;5053047;28;20395;-71
2021/05/07 06:39:04;;;;;;;29.92;19.70;;;6.60;82.70;;;;;;5053970;28;20400;-71
2021/05/07 06:41:29;;;;;;;29.38;19.38;;;6.80;77.30;;;;;;5053819;28;20474;-73
2021/05/07 06:43:55;;;;;;;26.70;18.17;;;6.90;76.50;;;;;;5053597;28;20484;-71
2021/05/07 06:46:20;;;;;;;25.77;16.83;;;7.00;74.60;;;;;;5053497;28;20401;-71
2021/05/07 06:48:46;;;;;;;26.07;18.47;;;6.90;68.60;;;;;;5054057;28;20438;-70
2021/05/07 06:51:12;;;;;;;25.43;16.97;;;6.70;73.40;;;;;;5053054;28;20742;-70
2021/05/07 06:53:38;;;;;;;27.63;17.50;;;6.30;73.50;;;;;;5053447;28;20392;-73
2021/05/07 06:56:04;;;;;;;29.30;17.60;;;5.70;95.20;;;;;;5053231;28;20878;-71
2021/05/07 06:58:30;;;;;;;25.77;17.30;;;5.10;99.90;;;;;;5053383;28;20388;-70
2021/05/07 07:00:56;;;;;;;30.00;18.80;;;4.70;99.90;;;;;;5052321;28;20929;-70
2021/05/07 07:03:22;;;;;;;34.13;22.30;;;4.60;99.90;;;;;;5052956;28;20461;-70
2021/05/07 07:05:48;;;;;;;38.80;23.90;;;4.50;99.90;;;;;;5052193;28;20480;-69
2021/05/07 07:08:14;;;;;;;41.45;25.13;;;4.50;99.90;;;;;;5052899;28;20389;-69
2021/05/07 07:10:39;;;;;;;35.60;22.42;;;4.40;99.90;;;;;;5052948;28;21491;-69
2021/05/07 07:13:05;;;;;;;32.95;20.58;;;4.30;99.90;;;;;;5052699;28;20496;-70
2021/05/07 07:15:30;;;;;;;34.88;21.75;;;4.30;99.90;;;;;;5053008;28;20456;-70
2021/05/07 07:17:56;;;;;;;31.43;19.50;;;4.30;99.90;;;;;;5051491;28;20421;-70
2021/05/07 07:20:21;;;;;;;30.30;18.80;;;4.40;99.90;;;;;;5051271;28;20414;-72
2021/05/07 07:22:47;;;;;;;25.00;16.37;;;4.50;99.90;;;;;;5051682;28;20897;-68
2021/05/07 07:25:14;;;;;;;27.08;17.75;;;4.60;99.90;;;;;;5044197;28;20385;-70
2021/05/07 07:27:39;;;;;;;26.88;18.52;;;4.70;99.90;;;;;;5052282;28;20400;-72
2021/05/07 07:30:05;;;;;;;28.23;19.80;;;4.90;99.90;;;;;;5052454;28;20889;-70
2021/05/07 07:32:31;;;;;;;30.20;19.50;;;5.30;99.90;;;;;;5052479;28;20382;-70
2021/05/07 07:35:01;;;;;;;24.27;16.50;;;5.50;99.90;;;;;;5050381;28;20409;-70
2021/05/07 07:37:26;;;;;;;22.88;16.45;;;5.40;99.90;;;;;;5052045;28;20378;-69
2021/05/07 07:39:52;;;;;;;25.90;17.50;;;5.40;96.80;;;;;;5052051;28;20396;-70
2021/05/07 07:42:17;;;;;;;24.73;16.90;;;5.50;98.70;;;;;;5052251;28;20393;-69
2021/05/07 07:44:43;;;;;;;26.50;18.80;;;5.70;92.40;;;;;;5051802;28;20388;-70
2021/05/07 07:47:08;;;;;;;30.33;18.83;;;5.90;86.70;;;;;;5051903;28;20865;-70
2021/05/07 07:49:34;;;;;;;27.98;19.77;;;6.10;77.40;;;;;;5051660;28;20904;-70
2021/05/07 07:52:00;;;;;;;25.80;16.02;;;6.30;77.30;;;;;;5052366;28;20444;-70
2021/05/07 07:54:27;;;;;;;26.05;18.08;;;5.90;73.60;;;;;;5052247;28;20471;-70
2021/05/07 07:56:53;;;;;;;22.70;15.80;;;5.70;82.50;;;;;;5054359;28;20397;-70
2021/05/07 07:59:20;;;;;;;22.45;15.82;;;5.70;80.30;;;;;;5055794;28;20443;-70
2021/05/07 08:01:45;;;;;;;27.67;17.95;;;5.60;79.10;;;;;;5056462;28;20416;-70
2021/05/07 08:04:11;;;;;;;24.90;17.90;;;5.60;84.80;;;;;;5052102;28;20389;-70
2021/05/07 08:06:36;;;;;;;27.45;17.58;;;5.80;85.90;;;;;;5051318;28;20393;-70
2021/05/07 08:09:04;;;;;;;20.33;14.20;;;6.00;85.70;;;;;;5051520;28;20480;-70
2021/05/07 08:11:29;;;;;;;19.48;13.50;;;6.30;71.60;;;;;;5049850;28;20397;-69
2021/05/07 08:13:55;;;;;;;19.03;11.60;;;6.50;75.00;;;;;;5030178;28;20414;-70
2021/05/07 08:16:21;;;;;;;16.03;11.17;;;6.50;62.90;;;;;;5048094;28;20535;-69
2021/05/07 08:18:46;;;;;;;19.13;11.90;;;6.30;65.30;;;;;;5049991;28;20397;-71
2021/05/07 08:21:12;;;;;;;17.63;13.10;;;6.30;70.20;;;;;;5051350;28;20384;-71
2021/05/07 08:23:37;;;;;;;20.77;13.20;;;6.60;75.00;;;;;;5049846;28;20476;-70
2021/05/07 08:26:03;;;;;;;18.45;11.55;;;7.10;71.50;;;;;;5051446;28;20389;-70
2021/05/07 08:28:28;;;;;;;18.70;11.38;;;7.50;59.40;;;;;;5050817;28;20450;-70
2021/05/07 08:30:54;;;;;;;17.95;12.63;;;7.40;58.70;;;;;;5051375;28;20842;-70
2021/05/07 08:33:20;;;;;;;19.13;12.75;;;7.60;62.80;;;;;;5050774;28;20412;-71
2021/05/07 08:35:45;;;;;;;16.63;12.50;;;7.70;59.50;;;;;;5051746;28;20381;-70
2021/05/07 08:38:11;;;;;;;19.58;12.65;;;7.90;55.60;;;;;;5049175;28;20381;-70
2021/05/07 08:40:38;;;;;;;20.73;13.50;;;8.00;51.10;;;;;;5049855;28;20941;-70
2021/05/07 08:43:07;;;;;;;19.63;13.45;;;8.00;53.30;;;;;;5049244;28;20398;-70
2021/05/07 08:45:32;;;;;;;20.73;14.07;;;8.20;52.70;;;;;;5050944;28;20408;-70
2021/05/07 08:47:58;;;;;;;16.50;12.23;;;8.40;52.60;;;;;;5050430;28;20393;-70
2021/05/07 08:50:24;;;;;;;19.00;14.30;;;8.60;50.00;;;;;;5050878;28;20385;-69
2021/05/07 08:52:49;;;;;;;20.63;14.20;;;8.80;48.30;;;;;;5050496;28;20959;-72
2021/05/07 08:55:15;;;;;;;19.85;13.07;;;8.80;45.60;;;;;;5051413;28;20743;-73
2021/05/07 08:57:41;;;;;;;20.70;13.98;;;8.60;46.60;;;;;;5049976;28;20393;-71
2021/05/07 09:00:09;;;;;;;25.83;15.15;;;8.60;49.90;;;;;;5051082;28;20380;-71
2021/05/07 09:02:35;;;;;;;20.45;14.88;;;8.80;46.60;;;;;;5051288;28;21054;-70
2021/05/07 09:05:01;;;;;;;28.67;16.73;;;8.50;45.50;;;;;;5050541;28;20419;-70
2021/05/07 09:07:30;;;;;;;25.07;16.67;;;8.60;50.90;;;;;;5050475;28;20471;-71
2021/05/07 09:10:00;;;;;;;25.52;17.60;;;8.60;48.30;;;;;;5050558;28;20751;-70
2021/05/07 09:12:28;;;;;;;26.08;16.08;;;8.80;50.80;;;;;;5044649;28;20949;-69
2021/05/07 09:14:54;;;;;;;25.30;14.00;;;8.70;44.40;;;;;;5051550;28;20397;-70
2021/05/07 09:17:22;;;;;;;23.30;13.50;;;8.70;47.10;;;;;;5050748;28;20398;-70
2021/05/07 09:19:48;;;;;;;32.58;14.70;;;8.80;43.20;;;;;;5050929;28;20389;-70
2021/05/07 09:22:26;;;;;;;16.80;8.52;;;8.80;49.20;;;;;;5050716;28;20382;-70
2021/05/07 09:25:13;;;;;;;7.57;5.03;;;8.20;47.50;;;;;;5050803;28;20377;-70
2021/05/07 09:27:39;;;;;;;7.68;6.30;;;7.70;49.80;;;;;;5050387;28;20390;-70
2021/05/07 09:30:21;;;;;;;8.23;6.50;;;7.60;51.90;;;;;;5050719;28;20378;-70
2021/05/07 09:32:54;;;;;;;8.30;7.03;;;7.80;53.70;;;;;;5049773;28;20393;-70
2021/05/07 09:35:30;;;;;;;12.10;8.52;;;8.10;49.70;;;;;;5049722;28;21843;-71
2021/05/07 09:38:01;;;;;;;10.98;7.40;;;8.20;46.00;;;;;;5039569;28;20403;-71
2021/05/07 09:40:27;;;;;;;6.78;5.47;;;8.60;47.40;;;;;;5051087;28;20385;-70
2021/05/07 09:43:04;;;;;;;5.47;4.97;;;8.70;45.10;;;;;;5050459;28;20393;-72
2021/05/07 09:45:30;;;;;;;4.93;4.43;;;8.50;43.10;;;;;;5051019;28;20465;-71
2021/05/07 09:47:56;;;;;;;8.73;5.37;;;8.20;41.40;;;;;;5051077;28;20508;-70
2021/05/07 09:50:40;;;;;;;9.52;5.20;;;8.00;44.10;;;;;;5048740;28;20396;-71
2021/05/07 09:53:19;;;;;;;5.90;5.13;;;8.40;44.90;;;;;;5050190;28;20413;-70
2021/05/07 09:55:46;;;;;;;5.85;4.00;;;9.00;40.40;;;;;;5050120;28;20399;-70
2021/05/07 09:58:12;;;;;;;4.50;3.30;;;9.30;41.20;;;;;;5050488;28;20412;-70
2021/05/07 10:00:38;;;;;;;4.90;4.50;;;8.90;36.00;;;;;;5050674;28;20382;-71
2021/05/07 10:03:05;;;;;;;4.88;3.65;;;8.90;38.00;;;;;;5048712;28;20420;-70
2021/05/07 10:05:31;;;;;;;4.32;3.38;;;9.10;35.70;;;;;;5050090;28;20943;-70
2021/05/07 10:07:58;;;;;;;3.75;3.30;;;8.80;31.80;;;;;;5050307;28;20478;-71
2021/05/07 10:10:40;;;;;;;4.90;3.50;;;8.90;32.60;;;;;;5049868;28;20457;-69
2021/05/07 10:13:27;;;;;;;3.17;2.95;;;9.20;36.90;;;;;;5044119;28;20441;-69
2021/05/07 10:16:06;;;;;;;5.77;3.10;;;9.50;32.40;;;;;;5049742;28;20502;-70
2021/05/07 10:18:35;;;;;;;3.43;3.13;;;9.80;30.60;;;;;;5049884;28;20451;-70
2021/05/07 10:21:08;;;;;;;5.68;3.63;;;9.50;30.30;;;;;;5030554;28;20415;-70
2021/05/07 10:23:35;;;;;;;6.00;4.40;;;9.60;33.60;;;;;;5047089;28;20508;-71
2021/05/07 10:26:07;;;;;;;5.35;3.30;;;9.90;29.30;;;;;;5050722;28;20527;-69
2021/05/07 10:28:50;;;;;;;5.30;3.90;;;9.40;29.80;;;;;;5049999;28;20432;-70
2021/05/07 10:31:17;;;;;;;3.03;2.45;;;9.70;27.10;;;;;;5036242;28;20412;-70
2021/05/07 10:33:59;;;;;;;8.50;3.20;;;10.00;25.10;;;;;;5048880;28;20409;-70
2021/05/07 10:36:42;;;;;;;5.70;4.30;;;10.00;20.80;;;;;;5044126;28;20815;-70
2021/05/07 10:39:27;;;;;;;4.60;2.20;;;9.80;24.10;;;;;;5055423;28;20404;-70
2021/05/07 10:42:02;;;;;;;3.38;3.03;;;9.50;24.30;;;;;;5057139;28;20882;-70
2021/05/07 10:44:42;;;;;;;3.65;2.78;;;10.10;28.50;;;;;;5054900;28;20444;-71
2021/05/07 10:47:11;;;;;;;4.05;2.60;;;9.90;26.90;;;;;;5052712;28;20445;-70
2021/05/07 10:49:44;;;;;;;2.95;2.75;;;9.80;26.60;;;;;;5053324;28;20976;-71
2021/05/07 10:52:14;;;;;;;5.88;3.60;;;10.00;27.30;;;;;;5053210;28;20897;-70
2021/05/07 10:54:44;;;;;;;4.00;2.65;;;10.00;25.10;;;;;;5053350;28;20401;-70
2021/05/07 10:57:28;;;;;;;3.20;2.88;;;9.90;24.90;;;;;;5053285;28;20393;-70
2021/05/07 10:59:57;;;;;;;2.30;2.00;;;9.80;24.10;;;;;;5052825;28;20390;-69
2021/05/07 11:02:24;;;;;;;4.03;2.80;;;10.00;20.20;;;;;;5052177;28;20775;-69
2021/05/07 11:04:50;;;;;;;3.00;2.60;;;10.40;21.20;;;;;;5052605;28;20400;-71
2021/05/07 11:07:30;;;;;;;4.03;2.50;;;11.10;18.30;;;;;;5050948;28;20397;-70
2021/05/07 11:10:08;;;;;;;3.28;2.53;;;11.40;18.00;;;;;;5052282;28;20483;-70
2021/05/07 11:12:37;;;;;;;3.65;2.50;;;10.90;18.30;;;;;;5053003;28;20534;-70
2021/05/07 11:15:13;;;;;;;3.40;3.10;;;11.30;18.30;;;;;;5052473;28;20389;-71
2021/05/07 11:17:39;;;;;;;3.33;3.00;;;11.50;17.60;;;;;;5052412;28;20717;-70
2021/05/07 11:20:05;;;;;;;2.67;2.50;;;11.80;15.40;;;;;;5050889;28;20398;-70
2021/05/07 11:22:31;;;;;;;3.20;2.90;;;11.10;16.20;;;;;;5052356;28;20389;-70
2021/05/07 11:24:56;;;;;;;3.75;3.00;;;10.90;18.40;;;;;;5052309;28;20541;-69
2021/05/07 11:27:26;;;;;;;5.78;3.20;;;10.50;19.40;;;;;;5052002;28;20889;-70
2021/05/07 11:29:53;;;;;;;3.80;3.50;;;10.70;20.40;;;;;;5051730;28;20447;-70
2021/05/07 11:32:23;;;;;;;3.75;3.00;;;11.30;19.30;;;;;;5052654;28;20421;-70
2021/05/07 11:34:57;;;;;;;4.50;3.25;;;11.80;16.50;;;;;;5050525;28;20502;-70
2021/05/07 11:37:24;;;;;;;3.80;3.50;;;11.30;16.70;;;;;;5052320;28;20862;-70
2021/05/07 11:40:01;;;;;;;4.07;3.33;;;10.90;17.70;;;;;;5051630;28;20400;-71
2021/05/07 11:42:31;;;;;;;4.18;3.50;;;10.70;19.20;;;;;;5052345;28;20400;-70
2021/05/07 11:44:57;;;;;;;5.45;4.60;;;10.50;21.00;;;;;;5052030;28;20898;-70
2021/05/07 11:47:32;;;;;;;5.00;3.70;;;10.70;19.90;;;;;;5051381;28;20495;-71
2021/05/07 11:49:58;;;;;;;5.35;4.30;;;10.90;17.50;;;;;;5052070;28;20412;-70
2021/05/07 11:52:38;;;;;;;6.60;3.70;;;11.20;18.00;;;;;;5053551;28;20397;-73
2021/05/07 11:55:06;;;;;;;6.53;3.95;;;11.80;14.70;;;;;;5052788;28;20378;-71
2021/05/07 11:57:33;;;;;;;5.18;4.68;;;12.20;13.60;;;;;;5051680;28;20420;-71
2021/05/07 12:00:04;;;;;;;4.28;3.60;;;12.20;12.80;;;;;;5052418;28;20759;-72
2021/05/07 12:02:32;;;;;;;5.32;3.20;;;12.20;11.70;;;;;;5046748;28;20532;-72
2021/05/07 12:04:58;;;;;;;5.25;3.80;;;12.00;12.00;;;;;;5052147;28;20421;-69
2021/05/07 12:07:25;;;;;;;3.85;3.20;;;11.90;14.90;;;;;;5052366;28;21212;-72
2021/05/07 12:09:51;;;;;;;6.70;4.10;;;11.40;11.90;;;;;;5052651;28;20439;-72
2021/05/07 12:12:17;;;;;;;4.30;3.90;;;11.10;13.30;;;;;;5045962;28;20397;-73
2021/05/07 12:14:50;;;;;;;4.03;3.50;;;11.40;12.10;;;;;;5052430;28;20409;-72
2021/05/07 12:17:17;;;;;;;5.85;3.60;;;12.00;11.40;;;;;;5051535;28;20462;-73
2021/05/07 12:19:43;;;;;;;5.00;4.00;;;12.00;11.30;;;;;;5031770;28;20457;-76
2021/05/07 12:22:20;;;;;;;6.07;3.80;;;11.90;12.20;;;;;;5030904;28;20470;-75
2021/05/07 12:24:46;;;;;;;6.05;4.30;;;11.80;14.30;;;;;;5049997;28;20463;-73
2021/05/07 12:27:12;;;;;;;4.95;4.13;;;11.60;11.80;;;;;;5050384;28;20393;-72
2021/05/07 12:29:37;;;;;;;5.30;4.30;;;11.70;13.50;;;;;;5049158;28;20427;-71
2021/05/07 12:32:04;;;;;;;4.83;3.87;;;12.10;13.30;;;;;;5042553;28;20426;-70
2021/05/07 12:34:32;;;;;;;5.32;4.82;;;12.30;12.40;;;;;;5050708;28;20516;-70
2021/05/07 12:36:59;;;;;;;7.25;5.30;;;12.50;11.40;;;;;;5043211;28;20399;-71
2021/05/07 12:39:27;;;;;;;6.25;4.95;;;13.00;11.90;;;;;;5044106;28;21088;-71
2021/05/07 12:41:55;;;;;;;4.68;4.25;;;13.20;10.70;;;;;;5051893;28;20389;-69
2021/05/07 12:44:22;;;;;;;5.75;4.30;;;13.10;10.60;;;;;;5050296;28;20861;-74